Time;durP1;ratioP1;P1;durP2;ratioP2;P2;SDS_P1;SDS_P2;PMS_P1;PMS_P2;Temp;Humidity;BMP_temperature;BMP_pressure;BME280_temperature;BME280_humidity;BME280_pressure;Samples;Min_cycle;Max_cycle;Signal;HPM_P1;HPM_P2
2022/03/06 00:01:00;;;;;;;40.30;13.98;;;;;;;3.79;56.34;100659.13;6319644;22;20026;-85
2022/03/06 00:03:26;;;;;;;31.95;14.10;;;;;;;3.86;56.68;100666.41;6290872;22;20015;-85
2022/03/06 00:05:54;;;;;;;25.95;12.90;;;;;;;4.06;56.42;100663.13;6315939;22;20053;-85
2022/03/06 00:08:20;;;;;;;27.83;13.73;;;;;;;4.36;57.06;100669.56;6318503;22;20018;-85
2022/03/06 00:10:47;;;;;;;30.60;13.70;;;;;;;4.35;55.17;100668.72;6316837;22;20058;-87
2022/03/06 00:13:14;;;;;;;30.25;13.65;;;;;;;4.47;55.43;100667.81;6316569;22;20030;-84
2022/03/06 00:15:41;;;;;;;36.08;14.10;;;;;;;4.34;53.97;100672.31;6315850;22;20010;-83
2022/03/06 00:18:07;;;;;;;24.90;13.10;;;;;;;4.10;54.58;100671.59;6314028;22;20065;-84
2022/03/06 00:20:32;;;;;;;26.15;12.60;;;;;;;3.96;55.01;100672.63;6315398;22;20361;-84
2022/03/06 00:22:58;;;;;;;22.52;12.23;;;;;;;4.19;55.94;100673.50;6312860;22;20407;-84
2022/03/06 00:25:27;;;;;;;23.23;12.30;;;;;;;4.36;55.23;100675.66;6311405;22;20022;-84
2022/03/06 00:27:52;;;;;;;26.95;12.55;;;;;;;4.53;55.42;100677.81;6315313;22;20004;-86
2022/03/06 00:30:18;;;;;;;21.00;11.65;;;;;;;4.59;54.90;100676.50;6313010;22;20044;-85
2022/03/06 00:32:44;;;;;;;23.13;12.52;;;;;;;4.60;54.95;100679.00;6313699;22;20015;-84
2022/03/06 00:35:10;;;;;;;23.60;11.98;;;;;;;4.79;55.97;100678.38;6312987;22;20076;-84
2022/03/06 00:37:36;;;;;;;24.77;12.65;;;;;;;4.50;54.53;100682.47;6312187;22;20014;-85
2022/03/06 00:40:04;;;;;;;24.95;12.32;;;;;;;4.22;56.18;100678.50;6313191;22;19999;-83
2022/03/06 00:42:30;;;;;;;25.45;12.95;;;;;;;4.24;55.94;100676.63;6314989;22;20011;-83
2022/03/06 00:44:56;;;;;;;31.67;13.18;;;;;;;4.33;55.33;100672.44;6315902;22;20089;-83
2022/03/06 00:47:21;;;;;;;28.50;13.15;;;;;;;4.27;55.29;100671.13;6316696;22;20003;-85
2022/03/06 00:49:47;;;;;;;29.58;13.20;;;;;;;4.33;55.31;100675.91;6315749;22;20033;-86
2022/03/06 00:52:13;;;;;;;25.55;12.57;;;;;;;4.43;55.48;100676.84;6316017;22;20323;-83
2022/03/06 00:54:39;;;;;;;29.52;13.35;;;;;;;4.39;55.53;100670.16;6316837;22;20015;-84
2022/03/06 00:57:05;;;;;;;27.63;12.73;;;;;;;4.39;55.63;100675.41;6317980;22;20003;-84
2022/03/06 00:59:34;;;;;;;26.98;13.60;;;;;;;4.25;55.71;100670.38;6317622;22;20041;-84
2022/03/06 01:02:03;;;;;;;29.02;13.30;;;;;;;4.28;55.15;100678.03;6315438;22;20018;-82
2022/03/06 01:04:28;;;;;;;28.30;12.30;;;;;;;4.19;55.82;100678.75;6315921;22;20003;-84
2022/03/06 01:06:54;;;;;;;31.23;13.05;;;;;;;3.95;56.33;100670.09;6320202;22;20014;-85
2022/03/06 01:09:20;;;;;;;24.25;11.90;;;;;;;3.34;57.98;100672.06;6317100;22;20007;-85
2022/03/06 01:11:46;;;;;;;25.65;12.38;;;;;;;3.17;59.63;100671.63;6317923;22;20007;-86
2022/03/06 01:14:12;;;;;;;25.55;12.38;;;;;;;2.82;60.32;100672.38;6315865;22;20015;-85
2022/03/06 01:16:38;;;;;;;23.27;12.63;;;;;;;2.77;61.05;100678.88;6317841;22;20419;-84
2022/03/06 01:19:04;;;;;;;24.58;12.50;;;;;;;2.70;61.42;100677.63;6316604;22;20395;-84
2022/03/06 01:21:29;;;;;;;24.02;12.25;;;;;;;2.82;60.98;100671.53;6316298;22;20008;-85
2022/03/06 01:23:55;;;;;;;25.67;11.95;;;;;;;2.73;61.22;100672.19;6315281;22;20427;-83
2022/03/06 01:26:20;;;;;;;23.73;11.98;;;;;;;2.67;61.41;100667.38;6315267;22;20027;-84
2022/03/06 01:28:46;;;;;;;23.75;12.90;;;;;;;2.74;60.84;100663.41;6314364;22;20422;-84
2022/03/06 01:31:12;;;;;;;35.20;15.15;;;;;;;2.82;60.57;100661.91;6315410;22;20435;-84
2022/03/06 01:33:38;;;;;;;27.55;11.68;;;;;;;2.85;60.07;100669.53;6315672;22;20016;-85
2022/03/06 01:36:04;;;;;;;26.65;12.75;;;;;;;2.76;60.90;100653.66;6315336;22;20018;-83
2022/03/06 01:38:30;;;;;;;29.33;13.45;;;;;;;3.13;59.43;100657.91;6315808;22;20015;-83
2022/03/06 01:40:55;;;;;;;28.70;12.52;;;;;;;3.08;58.90;100652.19;6315051;22;20007;-83
2022/03/06 01:43:24;;;;;;;29.30;13.55;;;;;;;3.13;59.32;100650.91;6315129;22;20004;-84
2022/03/06 01:45:50;;;;;;;25.00;13.00;;;;;;;3.09;58.83;100656.47;6314984;22;20188;-83
2022/03/06 01:48:16;;;;;;;28.35;13.80;;;;;;;3.05;59.57;100653.22;6316407;22;20003;-83
2022/03/06 01:50:42;;;;;;;29.75;13.50;;;;;;;3.11;59.06;100646.72;6317430;22;20064;-85
2022/03/06 01:53:09;;;;;;;29.75;13.45;;;;;;;2.57;60.75;100647.13;6314726;22;20011;-84
2022/03/06 01:55:36;;;;;;;27.83;13.70;;;;;;;2.33;62.00;100638.38;6313571;22;20163;-83
2022/03/06 01:58:07;;;;;;;26.17;13.23;;;;;;;2.23;62.44;100639.94;6315507;22;20007;-84
2022/03/06 02:00:37;;;;;;;25.90;13.10;;;;;;;1.98;63.64;100642.59;6317343;22;20034;-84
2022/03/06 02:03:03;;;;;;;34.65;14.68;;;;;;;1.97;64.56;100641.75;6316610;22;20335;-86
2022/03/06 02:05:28;;;;;;;25.35;13.15;;;;;;;2.04;63.72;100636.94;6314585;22;20043;-85
2022/03/06 02:07:54;;;;;;;29.30;13.88;;;;;;;2.01;64.11;100643.22;6317173;22;20015;-84
2022/03/06 02:10:20;;;;;;;27.52;13.20;;;;;;;2.27;62.93;100644.03;6287837;22;20007;-84
2022/03/06 02:12:47;;;;;;;34.35;15.85;;;;;;;2.46;62.46;100631.34;6288574;22;20060;-84
2022/03/06 02:15:15;;;;;;;25.35;11.82;;;;;;;2.43;61.73;100634.16;6288241;22;20481;-83
2022/03/06 02:17:41;;;;;;;25.80;12.50;;;;;;;2.25;61.72;100639.84;6313904;22;20466;-83
2022/03/06 02:20:12;;;;;;;29.90;13.32;;;;;;;2.22;62.19;100640.88;6315605;22;20465;-82
2022/03/06 02:22:40;;;;;;;26.85;13.10;;;;;;;2.14;63.00;100643.19;6287818;22;20015;-83
2022/03/06 02:25:13;;;;;;;30.67;12.32;;;;;;;2.09;62.29;100634.81;6313414;22;20007;-85
2022/03/06 02:27:39;;;;;;;28.83;12.68;;;;;;;2.11;62.38;100635.56;6286816;22;20011;-82
2022/03/06 02:30:12;;;;;;;27.73;12.65;;;;;;;2.13;62.20;100636.28;6262544;22;20075;-83
2022/03/06 02:32:39;;;;;;;34.05;14.00;;;;;;;1.93;62.78;100640.28;6315191;22;20003;-84
2022/03/06 02:35:07;;;;;;;25.75;12.43;;;;;;;1.77;63.85;100638.78;6316086;22;20018;-83
2022/03/06 02:37:33;;;;;;;28.23;12.68;;;;;;;1.88;63.04;100641.53;6315581;22;20039;-86
2022/03/06 02:40:01;;;;;;;26.10;12.23;;;;;;;1.98;62.97;100635.59;6316726;22;20007;-83
2022/03/06 02:42:32;;;;;;;25.63;11.90;;;;;;;1.99;62.74;100637.22;6318782;22;20014;-84
2022/03/06 02:45:00;;;;;;;23.27;9.57;;;;;;;1.97;62.10;100640.91;6268766;22;20015;-84
2022/03/06 02:47:27;;;;;;;27.70;12.80;;;;;;;2.04;62.73;100636.94;6320955;22;20082;-86
2022/03/06 02:49:53;;;;;;;31.00;13.50;;;;;;;2.04;62.23;100637.78;6321457;22;20086;-84
2022/03/06 02:54:59;;;;;;;25.05;13.50;;;;;;;2.44;61.18;100630.63;6231134;23;20049;-82
2022/03/06 02:57:31;;;;;;;29.25;13.07;;;;;;;2.33;60.88;100629.69;6178040;23;20448;-84
2022/03/06 02:59:57;;;;;;;24.95;12.68;;;;;;;2.07;62.59;100634.94;6201464;23;20009;-85
2022/03/06 03:02:23;;;;;;;25.63;12.80;;;;;;;1.96;63.27;100628.75;6200148;23;20055;-83
2022/03/06 03:04:49;;;;;;;21.27;11.80;;;;;;;1.84;64.31;100629.59;6226228;23;20012;-82
2022/03/06 03:07:15;;;;;;;30.73;13.73;;;;;;;1.95;63.50;100633.19;6226707;23;20016;-82
2022/03/06 03:09:40;;;;;;;30.13;12.60;;;;;;;1.97;63.78;100635.66;6226902;23;20001;-82
2022/03/06 03:12:06;;;;;;;26.67;12.82;;;;;;;1.96;64.67;100627.00;6224201;23;20092;-84
2022/03/06 03:14:33;;;;;;;25.60;13.00;;;;;;;1.84;64.21;100630.44;6198412;23;20009;-82
2022/03/06 03:17:00;;;;;;;28.58;14.02;;;;;;;2.05;63.17;100631.59;6225321;23;20008;-84
2022/03/06 03:19:25;;;;;;;31.10;13.88;;;;;;;1.79;64.44;100623.88;6225254;23;20013;-82
2022/03/06 03:21:54;;;;;;;29.67;13.80;;;;;;;1.66;65.30;100623.84;6225435;23;19993;-82
2022/03/06 03:24:20;;;;;;;31.08;13.85;;;;;;;1.50;66.41;100621.44;6198732;23;20032;-82
2022/03/06 03:26:45;;;;;;;30.58;14.35;;;;;;;1.40;67.05;100617.75;6225389;23;20036;-83
2022/03/06 03:29:11;;;;;;;32.53;14.00;;;;;;;1.29;67.51;100622.88;6225755;23;20005;-83
2022/03/06 03:31:36;;;;;;;29.05;14.48;;;;;;;1.11;68.60;100621.44;6199120;23;20009;-83
2022/03/06 03:34:02;;;;;;;35.65;14.63;;;;;;;1.24;70.21;100619.69;6226026;23;20011;-82
2022/03/06 03:36:29;;;;;;;31.65;14.93;;;;;;;1.06;68.78;100620.06;6197822;23;20012;-82
2022/03/06 03:38:54;;;;;;;29.88;13.40;;;;;;;0.98;69.85;100615.34;6226082;23;20060;-83
2022/03/06 03:41:22;;;;;;;27.98;13.88;;;;;;;0.87;69.90;100615.19;6173794;23;20012;-81
2022/03/06 03:43:47;;;;;;;27.73;14.05;;;;;;;1.03;69.97;100615.88;6225016;23;20602;-82
2022/03/06 03:46:13;;;;;;;29.42;13.68;;;;;;;1.03;70.84;100610.66;6198318;23;20103;-83
2022/03/06 03:48:38;;;;;;;33.78;14.55;;;;;;;1.01;69.64;100607.31;6198942;23;20016;-84
2022/03/06 03:51:04;;;;;;;28.38;13.90;;;;;;;1.23;69.56;100610.19;6225052;23;20023;-83
2022/03/06 03:53:30;;;;;;;34.80;14.90;;;;;;;1.28;68.99;100610.75;6223926;23;20012;-82
2022/03/06 03:55:55;;;;;;;35.17;14.60;;;;;;;1.61;67.38;100622.47;6225721;23;20012;-81
2022/03/06 03:58:21;;;;;;;30.08;14.20;;;;;;;1.84;66.73;100621.78;6196985;23;20325;-81
2022/03/06 04:00:55;;;;;;;32.67;14.88;;;;;;;2.09;66.17;100619.13;6223620;23;20032;-82
2022/03/06 04:03:22;;;;;;;25.23;13.10;;;;;;;1.92;65.07;100616.88;6224501;23;20043;-83
2022/03/06 04:05:47;;;;;;;28.30;14.00;;;;;;;1.59;66.51;100609.53;6196906;23;20099;-82
2022/03/06 04:08:14;;;;;;;32.40;16.23;;;;;;;1.09;69.12;100605.06;6197085;23;20012;-81
2022/03/06 04:10:39;;;;;;;35.25;16.25;;;;;;;0.86;70.49;100603.09;6197410;23;20028;-81
2022/03/06 04:13:05;;;;;;;36.30;17.00;;;;;;;0.71;72.51;100604.91;6222717;23;20111;-81
2022/03/06 04:15:33;;;;;;;35.22;16.25;;;;;;;0.67;73.26;100607.78;6223268;23;19997;-82
2022/03/06 04:17:59;;;;;;;35.63;16.48;;;;;;;0.90;73.00;100610.59;6196139;23;20066;-83
2022/03/06 04:20:25;;;;;;;37.35;16.85;;;;;;;1.13;71.69;100622.16;6197637;23;20032;-84
2022/03/06 04:22:51;;;;;;;37.95;16.73;;;;;;;1.24;71.51;100621.47;6197317;23;20522;-84
2022/03/06 04:25:17;;;;;;;33.45;15.73;;;;;;;1.48;69.84;100631.16;6224534;23;20017;-84
2022/03/06 04:27:43;;;;;;;39.55;16.92;;;;;;;1.62;69.29;100639.84;6225261;23;20059;-82
2022/03/06 04:30:09;;;;;;;32.30;15.48;;;;;;;1.96;68.06;100636.59;6225154;23;20009;-81
2022/03/06 04:32:35;;;;;;;31.50;15.75;;;;;;;2.05;67.54;100641.22;6224893;23;20013;-83
2022/03/06 04:35:01;;;;;;;41.58;17.98;;;;;;;1.91;67.41;100641.31;6226496;23;20040;-83
2022/03/06 04:37:26;;;;;;;35.58;16.85;;;;;;;1.76;67.50;100648.41;6225384;23;20376;-83
2022/03/06 04:39:52;;;;;;;37.30;18.23;;;;;;;1.57;68.64;100647.97;6226371;23;20039;-81
2022/03/06 04:42:18;;;;;;;35.47;17.85;;;;;;;1.45;68.20;100657.47;6227877;23;20039;-81
2022/03/06 04:44:43;;;;;;;36.42;17.17;;;;;;;1.44;68.75;100657.56;6228852;23;20016;-85
2022/03/06 04:47:09;;;;;;;44.35;18.35;;;;;;;1.42;68.60;100655.06;6225593;23;20086;-81
2022/03/06 04:49:34;;;;;;;36.97;17.00;;;;;;;1.46;68.44;100656.50;6225186;23;20098;-82
2022/03/06 04:52:00;;;;;;;46.38;17.85;;;;;;;1.19;69.35;100655.72;6224905;23;20075;-82
2022/03/06 04:54:25;;;;;;;43.22;19.00;;;;;;;1.22;69.02;100655.53;6223208;23;20494;-81
2022/03/06 04:56:51;;;;;;;35.67;16.77;;;;;;;1.28;68.69;100652.50;6223292;23;20178;-81
2022/03/06 04:59:17;;;;;;;36.13;16.85;;;;;;;1.37;68.87;100654.50;6222028;23;20023;-81
2022/03/06 05:01:44;;;;;;;39.22;17.23;;;;;;;1.48;68.44;100652.03;6223294;23;20013;-82
2022/03/06 05:04:12;;;;;;;45.83;17.48;;;;;;;1.73;68.88;100653.84;6222041;23;20005;-83
2022/03/06 05:06:38;;;;;;;33.05;15.90;;;;;;;1.83;67.11;100652.28;6223624;23;20082;-82
2022/03/06 05:09:06;;;;;;;35.45;16.33;;;;;;;1.92;67.19;100653.47;6223997;23;20071;-82
2022/03/06 05:11:33;;;;;;;34.20;17.20;;;;;;;2.05;66.13;100659.53;6200968;23;20008;-82
2022/03/06 05:13:58;;;;;;;34.20;15.90;;;;;;;2.22;66.27;100659.19;6226077;23;20008;-82
2022/03/06 05:16:24;;;;;;;33.10;16.40;;;;;;;2.40;66.00;100657.09;6226078;23;20153;-81
2022/03/06 05:18:50;;;;;;;32.50;15.25;;;;;;;2.43;65.06;100660.31;6197778;23;20012;-83
2022/03/06 05:21:30;;;;;;;33.80;15.52;;;;;;;2.09;65.20;100655.72;6201490;23;20035;-87
2022/03/06 05:24:01;;;;;;;36.53;16.55;;;;;;;1.82;66.67;100661.09;6225176;23;20452;-86
2022/03/06 05:26:26;;;;;;;41.97;17.42;;;;;;;1.70;67.69;100658.44;6226560;23;20004;-81
2022/03/06 05:29:02;;;;;;;33.13;16.40;;;;;;;1.48;69.32;100659.03;6202885;23;20028;-86
2022/03/06 05:31:27;;;;;;;36.88;15.73;;;;;;;1.41;70.27;100661.22;6179536;23;20017;-82
2022/03/06 05:33:56;;;;;;;32.00;14.93;;;;;;;1.29;70.34;100667.25;6232904;23;20019;-85
2022/03/06 05:36:37;;;;;;;31.30;15.85;;;;;;;1.24;71.01;100658.00;6175565;23;20004;-85
2022/03/06 05:39:06;;;;;;;29.20;15.18;;;;;;;1.54;69.26;100658.63;6206471;23;20019;-84
2022/03/06 05:41:32;;;;;;;33.13;15.23;;;;;;;1.46;69.70;100658.28;6272737;22;20021;-82
2022/03/06 05:44:00;;;;;;;33.72;16.23;;;;;;;1.64;67.68;100658.84;6322520;22;20007;-85
2022/03/06 05:46:26;;;;;;;31.95;15.43;;;;;;;1.72;67.55;100660.03;6322862;22;20007;-83
2022/03/06 05:48:52;;;;;;;35.13;15.55;;;;;;;1.78;67.27;100666.59;6321804;22;20000;-84
2022/03/06 05:51:18;;;;;;;36.75;16.52;;;;;;;1.63;68.20;100662.38;6326447;22;20038;-85
2022/03/06 05:53:43;;;;;;;29.50;16.05;;;;;;;1.45;68.74;100662.69;6322187;22;20003;-85
2022/03/06 05:56:09;;;;;;;32.25;16.17;;;;;;;1.26;70.40;100658.78;6319420;22;20121;-84
2022/03/06 05:58:38;;;;;;;44.83;17.20;;;;;;;1.46;69.61;100666.94;6317716;22;20014;-82
2022/03/06 06:01:03;;;;;;;39.25;17.48;;;;;;;1.25;70.55;100660.53;6318408;22;20431;-80
2022/03/06 06:03:32;;;;;;;31.60;17.15;;;;;;;1.31;70.76;100662.75;6267449;22;20027;-83
2022/03/06 06:06:03;;;;;;;40.15;17.05;;;;;;;1.47;69.86;100668.63;6318910;22;20007;-82
2022/03/06 06:08:29;;;;;;;38.65;13.77;;;;;;;1.39;69.70;100665.69;6288267;22;20011;-83
2022/03/06 06:10:55;;;;;;;37.90;17.27;;;;;;;1.43;70.28;100667.16;6293422;22;20346;-84
2022/03/06 06:13:23;;;;;;;41.95;17.38;;;;;;;1.31;70.77;100656.69;6321815;22;20022;-84
2022/03/06 06:15:49;;;;;;;47.53;18.80;;;;;;;1.47;69.96;100663.41;6322852;22;20026;-82
2022/03/06 06:18:14;;;;;;;42.00;18.73;;;;;;;1.56;70.15;100657.56;6322718;22;20007;-84
2022/03/06 06:20:43;;;;;;;45.50;17.40;;;;;;;1.65;69.61;100661.38;6324712;22;20025;-84
2022/03/06 06:23:09;;;;;;;42.25;19.17;;;;;;;1.70;70.14;100666.28;6327582;22;20007;-84
2022/03/06 06:25:40;;;;;;;44.40;17.35;;;;;;;1.63;70.85;100665.00;6316218;22;20011;-85
2022/03/06 06:28:06;;;;;;;41.00;19.13;;;;;;;1.81;70.06;100667.25;6321501;22;20434;-83
2022/03/06 06:30:31;;;;;;;41.20;19.05;;;;;;;1.74;70.89;100667.75;6320733;22;20037;-84
2022/03/06 06:33:00;;;;;;;40.38;18.90;;;;;;;1.76;71.24;100671.06;6322587;22;20011;-83
2022/03/06 06:35:32;;;;;;;47.40;19.67;;;;;;;1.76;71.12;100673.69;6324935;22;19995;-85
2022/03/06 06:37:58;;;;;;;;;;;;;;;1.53;72.45;100672.59;6326967;22;19999;-84
2022/03/06 06:40:31;;;;;;;46.03;19.45;;;;;;;1.65;72.77;100673.59;6297375;22;19906;-83
2022/03/06 06:43:07;;;;;;;45.50;20.25;;;;;;;1.74;72.29;100672.97;6321205;22;20015;-82
2022/03/06 06:45:32;;;;;;;41.28;19.60;;;;;;;2.05;71.15;100680.44;6320119;22;20016;-86
2022/03/06 06:48:22;;;;;;;;;;;;;;;;;;;;;
2022/03/06 06:51:02;;;;;;;40.83;19.30;;;;;;;2.29;69.92;100689.19;6233400;23;20009;-86
2022/03/06 06:53:27;;;;;;;46.80;20.05;;;;;;;2.38;69.90;100685.97;6231305;23;20088;-82
2022/03/06 06:55:53;;;;;;;41.78;20.13;;;;;;;2.46;68.82;100696.72;6225699;23;20013;-81
2022/03/06 06:58:19;;;;;;;49.20;21.25;;;;;;;2.51;69.29;100694.63;6197577;23;20452;-81
2022/03/06 07:00:44;;;;;;;38.75;19.35;;;;;;;2.34;70.01;100692.34;6226337;23;20008;-81
2022/03/06 07:03:10;;;;;;;46.97;20.73;;;;;;;2.36;70.61;100693.06;6227395;23;20020;-83
2022/03/06 07:05:35;;;;;;;47.40;19.85;;;;;;;2.34;70.82;100700.19;6201608;23;20389;-84
2022/03/06 07:08:01;;;;;;;47.35;21.67;;;;;;;2.35;71.63;100701.88;6197875;23;20008;-82
2022/03/06 07:10:27;;;;;;;53.40;22.63;;;;;;;2.40;71.76;100706.78;6221518;23;20013;-82
2022/03/06 07:12:55;;;;;;;50.03;21.00;;;;;;;2.63;71.04;100702.56;6221090;23;20012;-80
2022/03/06 07:15:22;;;;;;;48.78;21.23;;;;;;;2.70;70.65;100703.81;6180528;23;20017;-84
2022/03/06 07:17:48;;;;;;;43.60;20.80;;;;;;;3.02;69.75;100702.34;6223609;23;20017;-82
2022/03/06 07:20:14;;;;;;;48.45;21.02;;;;;;;2.96;68.88;100715.88;6171811;23;20075;-83
2022/03/06 07:22:40;;;;;;;41.88;20.25;;;;;;;3.14;68.43;100709.34;6316175;22;20094;-89
2022/03/06 07:25:06;;;;;;;42.42;21.40;;;;;;;2.88;70.24;100710.38;6292977;22;20049;-86
2022/03/06 07:27:32;;;;;;;48.10;21.38;;;;;;;2.81;70.85;100706.50;6320936;22;20041;-84
2022/03/06 07:29:58;;;;;;;45.83;22.92;;;;;;;2.92;70.11;100711.81;6316378;22;20039;-83
2022/03/06 07:32:24;;;;;;;53.22;23.25;;;;;;;3.15;69.45;100711.00;6319500;22;20018;-83
2022/03/06 07:35:41;;;;;;;43.15;22.15;;;;;;;3.29;68.02;100708.22;6298650;22;20019;-86
2022/03/06 07:38:07;;;;;;;51.42;22.63;;;;;;;3.37;67.32;100716.38;6196615;23;20013;-88
2022/03/06 07:40:35;;;;;;;49.72;22.35;;;;;;;3.60;66.35;100718.16;6173422;23;20065;-87
2022/03/06 07:43:04;;;;;;;49.33;23.23;;;;;;;3.54;67.86;100716.00;6201920;23;20027;-86
2022/03/06 07:45:30;;;;;;;51.42;22.90;;;;;;;3.78;66.87;100725.63;6177468;23;20029;-85
2022/03/06 07:47:55;;;;;;;49.00;23.80;;;;;;;4.05;65.84;100723.53;6201975;23;20023;-87
2022/03/06 07:50:26;;;;;;;49.45;23.50;;;;;;;4.35;64.56;100730.84;6204561;23;20064;-88
2022/03/06 07:52:56;;;;;;;48.10;22.48;;;;;;;4.60;62.97;100735.91;6169933;23;20021;-87
2022/03/06 07:55:22;;;;;;;50.97;22.80;;;;;;;4.48;63.33;100732.44;6155240;23;20021;-86
2022/03/06 07:57:48;;;;;;;51.60;22.52;;;;;;;4.53;63.33;100735.56;6128645;23;20039;-86
2022/03/06 08:00:14;;;;;;;53.35;22.25;;;;;;;4.59;62.99;100735.06;6155503;23;20068;-83
2022/03/06 08:02:40;;;;;;;49.95;24.83;;;;;;;4.46;63.25;100739.59;6202195;23;20529;-86
2022/03/06 08:05:08;;;;;;;50.42;22.70;;;;;;;4.48;63.32;100736.84;6180031;23;20013;-86
2022/03/06 08:07:36;;;;;;;46.60;22.73;;;;;;;4.77;62.76;100739.84;6155582;23;20108;-86
2022/03/06 08:10:06;;;;;;;43.03;21.70;;;;;;;5.25;61.42;100733.34;6175708;23;20020;-85
2022/03/06 08:12:32;;;;;;;53.13;22.20;;;;;;;5.60;60.02;100736.56;6196255;23;20368;-83
2022/03/06 08:14:57;;;;;;;49.13;22.38;;;;;;;6.09;59.28;100735.19;6233159;22;20063;-86
2022/03/06 08:17:30;;;;;;;51.17;22.67;;;;;;;6.00;59.56;100735.97;6322042;22;20019;-86
2022/03/06 08:19:57;;;;;;;38.85;19.98;;;;;;;6.18;58.40;100737.88;6273081;22;20011;-83
2022/03/06 08:22:29;;;;;;;52.10;23.13;;;;;;;6.59;57.98;100738.81;6317357;22;20022;-85
2022/03/06 08:25:20;;;;;;;46.93;21.93;;;;;;;6.91;56.62;100741.31;6324782;22;20008;-85
2022/03/06 08:27:47;;;;;;;42.15;21.92;;;;;;;7.23;54.85;100744.59;6276166;22;20019;-82
2022/03/06 08:30:22;;;;;;;44.28;20.65;;;;;;;7.60;53.21;100742.16;6327020;22;20023;-86
2022/03/06 08:32:57;;;;;;;43.15;20.05;;;;;;;7.76;52.52;100748.53;6292399;22;20007;-85
2022/03/06 08:35:49;;;;;;;40.17;20.98;;;;;;;8.34;50.99;100748.53;6297471;22;20018;-85
2022/03/06 08:38:16;;;;;;;38.38;20.25;;;;;;;8.48;50.40;100756.03;6325941;22;20031;-86
2022/03/06 08:40:43;;;;;;;44.83;22.65;;;;;;;8.47;50.16;100754.34;6323000;22;20059;-87
2022/03/06 08:43:12;;;;;;;42.90;21.35;;;;;;;8.99;49.02;100744.13;6323424;22;20015;-87
2022/03/06 08:45:39;;;;;;;42.72;21.25;;;;;;;9.18;48.06;100750.16;6322165;22;20015;-87
2022/03/06 08:48:05;;;;;;;47.05;21.77;;;;;;;9.18;47.69;100754.63;6324496;22;20018;-85
2022/03/06 08:50:30;;;;;;;39.67;21.65;;;;;;;9.46;46.51;100743.03;6299919;22;20019;-87
2022/03/06 08:53:02;;;;;;;41.28;21.05;;;;;;;9.59;46.25;100753.25;6328292;22;20007;-90
2022/03/06 08:55:29;;;;;;;41.78;21.45;;;;;;;9.58;45.86;100755.06;6299826;22;20022;-88
2022/03/06 08:58:09;;;;;;;43.58;21.27;;;;;;;10.06;44.08;100752.03;6328828;22;20050;-87
2022/03/06 09:00:41;;;;;;;37.97;18.83;;;;;;;9.77;44.50;100749.66;6320169;22;20012;-86
2022/03/06 09:03:08;;;;;;;39.78;20.90;;;;;;;9.96;45.19;100750.44;6333511;22;20011;-86
2022/03/06 09:05:40;;;;;;;38.83;20.13;;;;;;;10.19;43.69;100754.31;6306639;22;20019;-86
2022/03/06 09:08:09;;;;;;;43.33;21.17;;;;;;;10.21;43.92;100755.81;6303828;22;20008;-87
2022/03/06 09:10:37;;;;;;;38.47;20.08;;;;;;;9.88;43.55;100757.34;6325685;22;19996;-86
2022/03/06 09:13:04;;;;;;;38.75;20.83;;;;;;;10.38;43.15;100762.06;6300423;22;20035;-85
2022/03/06 09:15:33;;;;;;;38.90;20.45;;;;;;;10.47;41.97;100755.88;6299165;22;20013;-85
2022/03/06 09:17:58;;;;;;;40.53;19.58;;;;;;;10.49;41.58;100761.00;6329340;22;20011;-88
2022/03/06 09:20:33;;;;;;;38.15;19.45;;;;;;;10.76;40.56;100766.97;6327989;22;20058;-88
2022/03/06 09:23:05;;;;;;;33.55;18.02;;;;;;;10.90;40.45;100762.91;6300399;22;20038;-87
2022/03/06 09:25:33;;;;;;;34.57;18.57;;;;;;;11.42;39.34;100771.56;6300426;22;20034;-84
2022/03/06 09:28:07;;;;;;;39.30;19.63;;;;;;;10.78;41.29;100769.44;6327991;22;20007;-86
2022/03/06 09:30:50;;;;;;;36.65;18.83;;;;;;;11.22;41.05;100763.03;6277340;22;20349;-87
2022/03/06 09:33:17;;;;;;;37.95;19.25;;;;;;;11.55;39.26;100763.97;6328864;22;20096;-85
2022/03/06 09:35:42;;;;;;;47.60;22.90;;;;;;;10.70;40.46;100772.91;6301582;22;19999;-85
2022/03/06 09:38:19;;;;;;;34.97;18.48;;;;;;;11.33;39.41;100756.59;6330422;22;20007;-87
2022/03/06 09:41:06;;;;;;;36.00;18.80;;;;;;;11.93;37.70;100757.25;6329422;22;20019;-87
2022/03/06 09:49:15;;;;;;;34.50;17.67;;;;;;;11.23;37.45;100756.75;6277717;22;20327;-86
2022/03/06 09:51:41;;;;;;;31.02;17.38;;;;;;;11.38;37.85;100756.94;6311416;22;20015;-83
2022/03/06 09:54:09;;;;;;;31.05;16.90;;;;;;;10.66;38.72;100760.94;6310911;22;20011;-84
2022/03/06 09:56:35;;;;;;;36.17;17.80;;;;;;;11.31;37.84;100755.91;6310320;22;20042;-84
2022/03/06 09:59:01;;;;;;;29.65;16.58;;;;;;;11.72;36.54;100756.91;6311298;22;19999;-85
2022/03/06 10:01:26;;;;;;;34.08;16.98;;;;;;;12.02;36.23;100755.44;6313714;22;20007;-86
2022/03/06 10:03:55;;;;;;;28.70;16.30;;;;;;;11.81;36.86;100753.25;6315137;22;20039;-85
2022/03/06 10:06:21;;;;;;;31.80;15.60;;;;;;;12.00;36.86;100762.75;6314519;22;20045;-90
2022/03/06 10:08:46;;;;;;;29.63;16.70;;;;;;;11.86;37.01;100761.56;6285999;22;20095;-83
2022/03/06 10:11:13;;;;;;;29.30;15.95;;;;;;;12.32;36.29;100762.72;6310825;22;20312;-86
2022/03/06 10:13:41;;;;;;;29.25;15.75;;;;;;;12.14;36.53;100760.25;6312289;22;20014;-83
2022/03/06 10:16:07;;;;;;;29.35;16.60;;;;;;;12.61;35.62;100762.19;6317859;22;20019;-86
2022/03/06 10:18:35;;;;;;;28.80;16.52;;;;;;;12.68;34.89;100755.19;6317051;22;20018;-82
2022/03/06 10:21:25;;;;;;;32.33;16.25;;;;;;;13.85;33.09;100756.81;6325034;22;20015;-83
2022/03/06 10:23:53;;;;;;;30.00;15.55;;;;;;;14.06;32.48;100755.31;6327869;22;20018;-82
2022/03/06 10:26:29;;;;;;;30.67;15.35;;;;;;;13.41;33.31;100756.59;6324450;22;20103;-85
2022/03/06 10:28:57;;;;;;;32.90;16.77;;;;;;;13.64;32.95;100756.66;6324876;22;20026;-85
2022/03/06 10:31:25;;;;;;;31.13;17.35;;;;;;;12.58;34.55;100752.72;6324472;22;20011;-84
2022/03/06 10:33:59;;;;;;;28.08;16.65;;;;;;;12.14;35.57;100746.97;6324890;22;20014;-84
2022/03/06 10:36:32;;;;;;;31.23;16.23;;;;;;;13.05;34.04;100749.25;6327960;22;20011;-83
2022/03/06 10:38:58;;;;;;;28.88;15.77;;;;;;;14.11;32.49;100742.31;6327168;22;20007;-85
2022/03/06 10:41:33;;;;;;;30.10;16.38;;;;;;;15.02;31.32;100737.56;6328939;22;20811;-83
2022/03/06 10:43:59;;;;;;;26.33;15.43;;;;;;;14.47;30.72;100732.69;6328403;22;20022;-85
2022/03/06 10:46:24;;;;;;;32.75;16.08;;;;;;;13.54;31.66;100742.72;6324556;22;20008;-88
2022/03/06 10:48:59;;;;;;;28.17;14.88;;;;;;;13.56;31.72;100734.53;6323312;22;20069;-85
2022/03/06 10:51:25;;;;;;;33.05;16.55;;;;;;;13.46;31.37;100742.75;6329178;22;20018;-87
2022/03/06 10:53:52;;;;;;;25.40;14.50;;;;;;;12.53;32.06;100739.09;6325212;22;20003;-85
2022/03/06 10:56:18;;;;;;;28.58;14.60;;;;;;;11.61;33.15;100731.44;6318002;22;20037;-83
2022/03/06 10:58:45;;;;;;;30.13;14.40;;;;;;;11.83;33.42;100724.72;6318800;22;20430;-84
2022/03/06 11:01:12;;;;;;;25.30;14.55;;;;;;;12.94;31.73;100732.66;6314432;22;20004;-86
2022/03/06 11:03:40;;;;;;;30.52;14.25;;;;;;;12.54;32.18;100723.97;6319035;22;20018;-84
2022/03/06 11:06:10;;;;;;;25.23;14.60;;;;;;;12.49;32.75;100721.00;6317190;22;20033;-86
2022/03/06 11:08:38;;;;;;;29.08;14.88;;;;;;;13.01;32.03;100708.88;6330411;22;20055;-87
2022/03/06 11:11:12;;;;;;;26.70;14.18;;;;;;;12.31;32.99;100707.91;6327836;22;20019;-87
2022/03/06 11:13:39;;;;;;;23.63;13.45;;;;;;;12.38;31.46;100717.72;6317747;22;20019;-87
2022/03/06 11:16:05;;;;;;;22.27;13.15;;;;;;;12.46;32.33;100705.41;6310005;22;20038;-87
2022/03/06 11:18:32;;;;;;;28.60;14.80;;;;;;;12.30;31.48;100706.25;6309034;22;20015;-86
2022/03/06 11:21:00;;;;;;;29.65;14.60;;;;;;;10.47;35.33;100702.03;6308988;22;20059;-87
2022/03/06 11:23:28;;;;;;;22.38;13.55;;;;;;;9.64;36.58;100693.63;6308633;22;20008;-86
2022/03/06 11:26:09;;;;;;;25.35;14.23;;;;;;;9.39;37.26;100689.06;6307513;22;20018;-84
2022/03/06 11:28:49;;;;;;;27.25;14.25;;;;;;;9.64;36.61;100690.13;6307815;22;20011;-83